Lister — ZDHW6 — position and weather

sailwx.info

Track history (hours):
 
Tides and Currents Weather Stations Pressure Air Temp Water Temp Dewpoint Dewpoint Depression Visibility Wind Speed Wind Dir Waves Ship Positions

Lister

Last reported at 2014-Sep-30 19:34 UTC. Time now 2014-Sep-30 20:00 UTC.
Position N 55°53' E 012°39'.

Length 89 m; draft 4.3 m.

Type: Ship. MMSI: 236381000.

Date/timePositionNaut miles runAvg speedWind from/ knotsBaromVisibWave heightAir tempDewpointWater temp
2014-Sep-30 19:34N 55°53' E 012°39'1110.6
2014-Sep-30 18:33N 56°03' E 012°38'9 8.9
2014-Sep-30 17:33N 56°09' E 012°27'1010.1
2014-Sep-30 16:34N 56°19' E 012°24'1211.6
2014-Sep-30 15:33N 56°30' E 012°33'1211.9
2014-Sep-30 14:32N 56°38' E 012°49'2 0.9
2014-Sep-30 12:30N 56°39' E 012°51'0 0.0
2014-Sep-30 11:24N 56°39' E 012°51'0 0.0
2014-Sep-30 08:12N 56°39' E 012°51'0 0.0
2014-Sep-30 07:18N 56°39' E 012°51'0 0.0
2014-Sep-30 06:12N 56°39' E 012°51'0 0.0
2014-Sep-30 05:30N 56°39' E 012°51'0 0.0
2014-Sep-30 04:33N 56°39' E 012°51'0 0.0
2014-Sep-30 03:33N 56°39' E 012°51'0 0.0
2014-Sep-30 02:30N 56°39' E 012°51'0 0.0
2014-Sep-30 01:12N 56°39' E 012°51'0 0.0
2014-Sep-30 00:18N 56°39' E 012°51'0 0.0
2014-Sep-29 23:30N 56°39' E 012°51'0 0.0
2014-Sep-29 22:30N 56°39' E 012°51'0 0.0
2014-Sep-29 18:30N 56°39' E 012°51'0 0.0
2014-Sep-29 17:24N 56°39' E 012°51'0 0.0
2014-Sep-29 15:30N 56°39' E 012°51'0 0.0
2014-Sep-29 12:06N 56°39' E 012°51'0 0.0
2014-Sep-29 11:12N 56°39' E 012°51'0 0.0
2014-Sep-29 10:30N 56°39' E 012°51'0 0.0
2014-Sep-29 09:30N 56°39' E 012°51'0 0.0
2014-Sep-29 08:30N 56°39' E 012°51'0 0.0
2014-Sep-29 06:18N 56°39' E 012°51'0 0.0
2014-Sep-29 05:30N 56°39' E 012°51'0 0.0
2014-Sep-29 04:24N 56°39' E 012°51'0 0.0
2014-Sep-29 03:12N 56°39' E 012°51'0 0.0
2014-Sep-29 00:30N 56°39' E 012°51'0 0.0
2014-Sep-28 23:12N 56°39' E 012°51'0 0.0
2014-Sep-28 19:24N 56°39' E 012°51'0 0.0
2014-Sep-28 18:18N 56°39' E 012°51'0 0.0
2014-Sep-28 17:30N 56°39' E 012°51'0 0.0
2014-Sep-28 16:24N 56°39' E 012°51'0 0.0
2014-Sep-28 15:06N 56°39' E 012°51'0 0.0
2014-Sep-28 13:30N 56°39' E 012°51'0 0.0
2014-Sep-28 09:15N 56°39' E 012°51'0 0.0
2014-Sep-28 08:18N 56°39' E 012°51'0 0.0
2014-Sep-28 07:24N 56°39' E 012°51'0 0.0
2014-Sep-28 06:24N 56°39' E 012°51'0 0.0
2014-Sep-28 05:30N 56°39' E 012°51'0 0.0
2014-Sep-28 04:24N 56°39' E 012°51'0 0.0
2014-Sep-28 03:30N 56°39' E 012°51'0 0.0
2014-Sep-28 02:12N 56°39' E 012°51'0 0.0
2014-Sep-28 01:30N 56°39' E 012°51'0 0.0
2014-Sep-28 00:06N 56°39' E 012°51'0 0.0
2014-Sep-27 23:18N 56°39' E 012°51'0 0.0
2014-Sep-27 16:06N 56°39' E 012°51'0 0.0
2014-Sep-27 15:30N 56°39' E 012°51'0 0.0
2014-Sep-27 14:18N 56°39' E 012°51'0 0.0
2014-Sep-27 13:24N 56°39' E 012°51'0 0.0
2014-Sep-27 09:12N 56°39' E 012°51'0 0.0
2014-Sep-27 08:30N 56°39' E 012°51'0 0.0
2014-Sep-27 04:30N 56°39' E 012°51'0 0.0
2014-Sep-27 03:30N 56°39' E 012°51'0 0.0
2014-Sep-27 02:12N 56°39' E 012°51'0 0.0
2014-Sep-27 01:18N 56°39' E 012°51'0 0.0
2014-Sep-27 00:06N 56°39' E 012°51'0 0.0
2014-Sep-26 23:18N 56°39' E 012°51'0 0.0
2014-Sep-26 19:18N 56°39' E 012°51'0 0.0
2014-Sep-26 18:18N 56°39' E 012°51'0 0.0
2014-Sep-26 15:06N 56°39' E 012°51'2 0.0
2014-Sep-25 03:32N 56°38' E 012°49'1111.0
2014-Sep-25 02:33N 56°31' E 012°35'1111.1
2014-Sep-25 01:34N 56°21' E 012°25'1010.3
2014-Sep-25 00:33N 56°11' E 012°29'10 9.8
2014-Sep-24 23:34N 56°03' E 012°40'1010.2
2014-Sep-24 22:33N 55°53' E 012°45'1111.2
2014-Sep-24 21:34N 55°42' E 012°41'10 9.9
2014-Sep-24 20:33N 55°33' E 012°43'1110.7
2014-Sep-24 19:34N 55°22' E 012°42'9 8.7
2014-Sep-24 18:33N 55°16' E 012°53'10 9.6
2014-Sep-24 17:32N 55°15' E 013°10'10 9.7
2014-Sep-24 16:32N 55°15' E 013°27'9 9.5
2014-Sep-24 15:33N 55°14' E 013°43'9 9.0
2014-Sep-24 14:33N 55°14' E 013°59'8 8.4
2014-Sep-24 13:33N 55°13' E 014°14'7 7.0
2014-Sep-24 12:33N 55°17' E 014°24'7 7.0
2014-Sep-24 11:33N 55°23' E 014°31'7 7.5
2014-Sep-24 10:34N 55°28' E 014°40'8 7.8
2014-Sep-24 09:33N 55°32' E 014°52'8 8.0
2014-Sep-24 08:34N 55°36' E 015°05'8 7.8
2014-Sep-24 07:32N 55°40' E 015°17'10 8.1
2014-Sep-24 06:20N 55°45' E 015°32'7 9.2
2014-Sep-24 05:32N 55°49' E 015°43'1410.3
2014-Sep-24 04:08N 55°56' E 016°06'610.9
2014-Sep-24 03:33N 55°59' E 016°15'27210.9
2014-Sep-23 02:33N 59°39' E 021°16'1111.1
2014-Sep-23 01:34N 59°49' E 021°22'  
Track history (hours):
 
Tides and Currents Weather Stations Pressure Air Temp Water Temp Dewpoint Dewpoint Depression Visibility Wind Speed Wind Dir Waves Ship Positions

Lister

Last reported at 2014-Sep-30 19:34 UTC. Time now 2014-Sep-30 20:00 UTC.
Position N 55°53' E 012°39'.

Length 89 m; draft 4.3 m.

Type: Ship. MMSI: 236381000.

Date/timePositionNaut miles runAvg speedWind from/ knotsBaromVisibWave heightAir tempDewpointWater temp
2014-Sep-30 19:34N 55°53' E 012°39'1110.6
2014-Sep-30 18:33N 56°03' E 012°38'9 8.9
2014-Sep-30 17:33N 56°09' E 012°27'1010.1
2014-Sep-30 16:34N 56°19' E 012°24'1211.6
2014-Sep-30 15:33N 56°30' E 012°33'1211.9
2014-Sep-30 14:32N 56°38' E 012°49'2 0.9
2014-Sep-30 12:30N 56°39' E 012°51'0 0.0
2014-Sep-30 11:24N 56°39' E 012°51'0 0.0
2014-Sep-30 08:12N 56°39' E 012°51'0 0.0
2014-Sep-30 07:18N 56°39' E 012°51'0 0.0
2014-Sep-30 06:12N 56°39' E 012°51'0 0.0
2014-Sep-30 05:30N 56°39' E 012°51'0 0.0
2014-Sep-30 04:33N 56°39' E 012°51'0 0.0
2014-Sep-30 03:33N 56°39' E 012°51'0 0.0
2014-Sep-30 02:30N 56°39' E 012°51'0 0.0
2014-Sep-30 01:12N 56°39' E 012°51'0 0.0
2014-Sep-30 00:18N 56°39' E 012°51'0 0.0
2014-Sep-29 23:30N 56°39' E 012°51'0 0.0
2014-Sep-29 22:30N 56°39' E 012°51'0 0.0
2014-Sep-29 18:30N 56°39' E 012°51'0 0.0
2014-Sep-29 17:24N 56°39' E 012°51'0 0.0
2014-Sep-29 15:30N 56°39' E 012°51'0 0.0
2014-Sep-29 12:06N 56°39' E 012°51'0 0.0
2014-Sep-29 11:12N 56°39' E 012°51'0 0.0
2014-Sep-29 10:30N 56°39' E 012°51'0 0.0
2014-Sep-29 09:30N 56°39' E 012°51'0 0.0
2014-Sep-29 08:30N 56°39' E 012°51'0 0.0
2014-Sep-29 06:18N 56°39' E 012°51'0 0.0
2014-Sep-29 05:30N 56°39' E 012°51'0 0.0
2014-Sep-29 04:24N 56°39' E 012°51'0 0.0
2014-Sep-29 03:12N 56°39' E 012°51'0 0.0
2014-Sep-29 00:30N 56°39' E 012°51'0 0.0
2014-Sep-28 23:12N 56°39' E 012°51'0 0.0
2014-Sep-28 19:24N 56°39' E 012°51'0 0.0
2014-Sep-28 18:18N 56°39' E 012°51'0 0.0
2014-Sep-28 17:30N 56°39' E 012°51'0 0.0
2014-Sep-28 16:24N 56°39' E 012°51'0 0.0
2014-Sep-28 15:06N 56°39' E 012°51'0 0.0
2014-Sep-28 13:30N 56°39' E 012°51'0 0.0
2014-Sep-28 09:15N 56°39' E 012°51'0 0.0
2014-Sep-28 08:18N 56°39' E 012°51'0 0.0
2014-Sep-28 07:24N 56°39' E 012°51'0 0.0
2014-Sep-28 06:24N 56°39' E 012°51'0 0.0
2014-Sep-28 05:30N 56°39' E 012°51'0 0.0
2014-Sep-28 04:24N 56°39' E 012°51'0 0.0
2014-Sep-28 03:30N 56°39' E 012°51'0 0.0
2014-Sep-28 02:12N 56°39' E 012°51'0 0.0
2014-Sep-28 01:30N 56°39' E 012°51'0 0.0
2014-Sep-28 00:06N 56°39' E 012°51'0 0.0
2014-Sep-27 23:18N 56°39' E 012°51'0 0.0
2014-Sep-27 16:06N 56°39' E 012°51'0 0.0
2014-Sep-27 15:30N 56°39' E 012°51'0 0.0
2014-Sep-27 14:18N 56°39' E 012°51'0 0.0
2014-Sep-27 13:24N 56°39' E 012°51'0 0.0
2014-Sep-27 09:12N 56°39' E 012°51'0 0.0
2014-Sep-27 08:30N 56°39' E 012°51'0 0.0
2014-Sep-27 04:30N 56°39' E 012°51'0 0.0
2014-Sep-27 03:30N 56°39' E 012°51'0 0.0
2014-Sep-27 02:12N 56°39' E 012°51'0 0.0
2014-Sep-27 01:18N 56°39' E 012°51'0 0.0
2014-Sep-27 00:06N 56°39' E 012°51'0 0.0
2014-Sep-26 23:18N 56°39' E 012°51'0 0.0
2014-Sep-26 19:18N 56°39' E 012°51'0 0.0
2014-Sep-26 18:18N 56°39' E 012°51'0 0.0
2014-Sep-26 15:06N 56°39' E 012°51'2 0.0
2014-Sep-25 03:32N 56°38' E 012°49'1111.0
2014-Sep-25 02:33N 56°31' E 012°35'1111.1
2014-Sep-25 01:34N 56°21' E 012°25'1010.3
2014-Sep-25 00:33N 56°11' E 012°29'10 9.8
2014-Sep-24 23:34N 56°03' E 012°40'1010.2
2014-Sep-24 22:33N 55°53' E 012°45'1111.2
2014-Sep-24 21:34N 55°42' E 012°41'10 9.9
2014-Sep-24 20:33N 55°33' E 012°43'1110.7
2014-Sep-24 19:34N 55°22' E 012°42'9 8.7
2014-Sep-24 18:33N 55°16' E 012°53'10 9.6
2014-Sep-24 17:32N 55°15' E 013°10'10 9.7
2014-Sep-24 16:32N 55°15' E 013°27'9 9.5
2014-Sep-24 15:33N 55°14' E 013°43'9 9.0
2014-Sep-24 14:33N 55°14' E 013°59'8 8.4
2014-Sep-24 13:33N 55°13' E 014°14'7 7.0
2014-Sep-24 12:33N 55°17' E 014°24'7 7.0
2014-Sep-24 11:33N 55°23' E 014°31'7 7.5
2014-Sep-24 10:34N 55°28' E 014°40'8 7.8
2014-Sep-24 09:33N 55°32' E 014°52'8 8.0
2014-Sep-24 08:34N 55°36' E 015°05'8 7.8
2014-Sep-24 07:32N 55°40' E 015°17'10 8.1
2014-Sep-24 06:20N 55°45' E 015°32'7 9.2
2014-Sep-24 05:32N 55°49' E 015°43'1410.3
2014-Sep-24 04:08N 55°56' E 016°06'610.9
2014-Sep-24 03:33N 55°59' E 016°15'27210.9
2014-Sep-23 02:33N 59°39' E 021°16'1111.1
2014-Sep-23 01:34N 59°49' E 021°22'  

Dump ship's entire track history